LEX weather

Blue Grass Airport
Lexington, Kentucky, United States

Public forecast

Using degrees Fahrenheit for public forecast. Weather courtesy of forecast.io.

Current aviation weather report (METAR) for Blue Grass Airport

Retrieved 2019/10/19 00:54 UTC (13 minutes ago):

KLEX 190054Z 06006KT 10SM CLR 12/03 A3000 RMK AO2 SLP159 T01170028

Aviation forecast (TAF) for Blue Grass Airport

Retrieved 2019-10-19 00:22 UTC (45 minutes ago):

TAF KLEX 182320Z 1900/1924 08006KT P6SM FEW250 FM191200 13007KT P6SM SCT200